Overview Statistics Trail Chart Weather Telemetry Raw packets
 

This is the latest recevied weather packets stored in our database for station/object R1ZCU-14. If no packets are shown the sender has not sent any weather packets the latest 10 day(s).

<< 40 41 42 43 44 45 46 >>
Time Temp. Humidity Pressure Rain* Wind** Luminosity Snow
1787737085 12.78° C 61% 1017.8 hPa - - - -
1787736484 11.11° C 65% 1018 hPa - - - -
1787735884 16.67° C 40% 1017.8 hPa - - - -
1787735283 20° C 34% 1017.5 hPa - - - -
1787734683 21.11° C 30% 1016.6 hPa - - - -
1787734083 13.89° C 52% 1016.6 hPa - - - -
1787733482 11.67° C 59% 1017.3 hPa - - - -
1787732882 15° C 44% 1017 hPa - - - -
1787732281 20° C 30% 1016.8 hPa - - - -
1787731681 13.89° C 50% 1016.5 hPa - - - -
1787731080 15.56° C 40% 1016.9 hPa - - - -
1787730480 12.22° C 64% 1016.4 hPa - - - -
1787729879 16.67° C 49% 1016.5 hPa - - - -
1787729279 13.33° C 60% 1016.2 hPa - - - -
1787728678 10.56° C 82% 1016.6 hPa - - - -
1787728078 12.78° C 61% 1016.1 hPa - - - -
1787727477 11.11° C 75% 1016 hPa - - - -
1787726877 9.44° C 92% 1016.5 hPa - - - -
1787726276 9.44° C 94% 1016.5 hPa - - - -
1787725676 9.44° C 95% 1016.3 hPa - - - -
1787725075 9.44° C 94% 1016.2 hPa - - - -
1787724475 9.44° C 89% 1016.2 hPa - - - -
1787723874 10° C 90% 1015.8 hPa - - - -
1787723274 9.44° C 91% 1016.1 hPa - - - -
1787722673 10.56° C 85% 1015.8 hPa - - - -

* Rain since midnight (hover to see other rain measurements)
** Current wind speed in m/s (hover to see current wind gust speed)